Terminal Aerodrome Forecast
Issued by NWS

Home | Current Version | Previous Version | Text Only | Print | Product List | Glossary On
Versions: 1 2 3 4 5 6 7 8 9 10 11 12 13 14 15 16 17 18 19 20 21 22 23 24 25
747
FTUS42 KGSP 211948 AAA
TAFAND
TAF AMD
KAND 211948Z 2120/2218 21011KT P6SM VCSH SCT015 BKN035
      TEMPO 2120/2122 BKN015
     FM220300 13004KT P6SM BKN015
     FM220500 15005KT 6SM BR BKN008 PROB30 2207/2208 2SM -RA BR
      OVC004
     FM220900 17005KT 4SM BR BKN004
     FM221400 19005KT P6SM BKN005=

USA.gov is the U.S. government's official web portal to all federal, state and local government web resources and services.